createdAt,value
2024-01-09T00:01:41.513Z,13.00
2024-01-09T00:06:43.201Z,14.95
2024-01-09T00:11:44.739Z,13.65
2024-01-09T00:16:46.264Z,11.68
2024-01-09T00:21:48.742Z,13.63
2024-01-09T00:26:50.304Z,13.20
2024-01-09T00:31:51.823Z,12.38
2024-01-09T00:36:53.303Z,12.05
2024-01-09T00:41:54.814Z,10.65
2024-01-09T00:46:56.298Z,12.32
2024-01-09T00:51:58.467Z,12.57
2024-01-09T00:57:00.087Z,11.18
2024-01-09T01:02:01.623Z,10.80
2024-01-09T01:07:03.116Z,11.88
2024-01-09T01:12:04.692Z,11.38
2024-01-09T01:17:06.268Z,13.98
2024-01-09T01:22:07.755Z,11.15
2024-01-09T01:27:09.533Z,12.73
2024-01-09T01:32:11.682Z,12.45
2024-01-09T01:37:13.234Z,12.50
2024-01-09T01:42:14.700Z,11.48
2024-01-09T01:47:16.537Z,10.95
2024-01-09T01:52:18.401Z,10.77
2024-01-09T01:57:19.890Z,13.77
2024-01-09T02:02:21.566Z,14.27
2024-01-09T02:07:24.709Z,14.07
2024-01-09T02:12:26.504Z,10.63
2024-01-09T02:17:32.054Z,10.13
2024-01-09T02:22:34.067Z,14.27
2024-01-09T02:27:44.724Z,11.45
2024-01-09T02:32:46.883Z,14.70
2024-01-09T02:37:48.665Z,8.95
2024-01-09T02:42:50.158Z,11.40
2024-01-09T02:47:52.387Z,10.82
2024-01-09T02:52:53.937Z,11.38
2024-01-09T02:57:55.531Z,9.13
2024-01-09T03:02:57.243Z,9.27
2024-01-09T03:07:58.756Z,12.45
2024-01-09T03:13:00.210Z,10.65
2024-01-09T03:18:02.336Z,10.52
2024-01-09T03:23:03.881Z,9.23
2024-01-09T03:28:05.476Z,10.20
2024-01-09T03:33:07.221Z,11.98
2024-01-09T03:38:08.953Z,11.13
2024-01-09T03:43:10.523Z,13.25
2024-01-09T03:48:12.071Z,16.05
2024-01-09T03:53:13.756Z,14.25
2024-01-09T03:58:15.253Z,16.35
2024-01-09T04:03:16.888Z,19.15
2024-01-09T04:08:18.381Z,13.23
2024-01-09T04:13:20.155Z,13.57
2024-01-09T04:18:21.972Z,12.25
2024-01-09T04:23:24.817Z,11.45
2024-01-09T04:28:26.341Z,9.93
2024-01-09T04:33:27.931Z,10.75
2024-01-09T04:38:29.494Z,10.00
2024-01-09T04:43:31.017Z,12.18
2024-01-09T04:48:32.683Z,11.50
2024-01-09T04:53:34.373Z,11.95
2024-01-09T04:58:35.932Z,13.40
2024-01-09T05:03:37.426Z,15.65
2024-01-09T05:08:39.006Z,9.35
2024-01-09T05:13:40.517Z,11.55
2024-01-09T05:18:50.990Z,9.10
2024-01-09T05:23:52.550Z,10.50
2024-01-09T05:28:55.236Z,12.50
2024-01-09T05:33:56.886Z,9.88
2024-01-09T05:38:58.547Z,10.32
2024-01-09T05:44:00.124Z,9.20
2024-01-09T05:49:01.874Z,11.68
2024-01-09T05:54:03.555Z,12.88
2024-01-09T05:59:05.182Z,9.50
2024-01-09T06:04:06.746Z,10.98
2024-01-09T06:09:09.424Z,11.20
2024-01-09T06:14:11.024Z,9.48
2024-01-09T06:19:13.123Z,8.60
2024-01-09T06:24:14.812Z,10.70
2024-01-09T06:29:16.456Z,8.95
2024-01-09T06:34:18.040Z,10.45
2024-01-09T06:39:20.128Z,10.45
2024-01-09T06:44:21.716Z,10.48
2024-01-09T06:49:23.270Z,9.65
2024-01-09T06:54:24.796Z,8.10
2024-01-09T06:59:26.366Z,7.68
2024-01-09T07:04:28.145Z,9.93
2024-01-09T07:09:29.693Z,11.02
2024-01-09T07:14:31.247Z,9.30
2024-01-09T07:19:32.829Z,9.30
2024-01-09T07:24:34.466Z,9.40
2024-01-09T07:29:35.922Z,9.25
2024-01-09T07:34:37.542Z,7.35
2024-01-09T07:39:39.101Z,9.25
2024-01-09T07:44:40.692Z,8.18
2024-01-09T07:49:42.325Z,9.60
2024-01-09T07:54:43.830Z,13.73
2024-01-09T07:59:45.449Z,9.07
2024-01-09T08:04:46.966Z,8.75
2024-01-09T08:09:48.445Z,10.18
2024-01-09T08:14:50.814Z,10.23
2024-01-09T08:19:52.371Z,9.65
2024-01-09T08:24:53.921Z,7.82
2024-01-09T08:29:55.674Z,10.15
2024-01-09T08:34:57.664Z,10.07
2024-01-09T08:39:59.411Z,12.35
2024-01-09T08:45:01.354Z,7.72
2024-01-09T08:50:03.488Z,8.95
2024-01-09T08:55:05.583Z,9.32
2024-01-09T09:00:07.733Z,8.68
2024-01-09T09:05:09.510Z,10.05
2024-01-09T09:10:11.014Z,7.10
2024-01-09T09:15:12.525Z,9.48
2024-01-09T09:20:14.594Z,7.88
2024-01-09T09:25:16.587Z,9.10
2024-01-09T09:30:18.429Z,8.68
2024-01-09T09:35:19.994Z,9.63
2024-01-09T09:40:23.333Z,8.20
2024-01-09T09:45:26.382Z,7.75
2024-01-09T09:50:28.656Z,8.57
2024-01-09T09:55:30.273Z,8.82
2024-01-09T10:00:31.776Z,8.55
2024-01-09T10:05:36.352Z,11.05
2024-01-09T10:10:38.333Z,8.82
2024-01-09T10:15:58.142Z,9.60
2024-01-09T10:21:01.052Z,9.07
2024-01-09T10:26:04.035Z,9.75
2024-01-09T10:31:09.032Z,9.50
2024-01-09T10:36:11.070Z,7.22
2024-01-09T10:41:17.382Z,8.75
2024-01-09T10:46:23.644Z,8.30
2024-01-09T10:51:25.530Z,8.77
2024-01-09T10:56:27.449Z,8.45
2024-01-09T11:01:28.940Z,9.50
2024-01-09T11:06:31.695Z,9.15
2024-01-09T11:11:35.339Z,9.23
2024-01-09T11:16:39.345Z,7.80
2024-01-09T11:21:40.816Z,8.35
2024-01-09T11:26:43.601Z,7.95
2024-01-09T11:31:48.196Z,9.70
2024-01-09T11:36:51.900Z,9.20
2024-01-09T11:41:56.204Z,8.50
2024-01-09T11:46:57.713Z,6.97
2024-01-09T11:52:00.342Z,8.25
2024-01-09T11:57:02.253Z,9.15
2024-01-09T12:02:07.015Z,10.95
2024-01-09T12:07:08.663Z,9.10
2024-01-09T12:12:10.824Z,8.13
2024-01-09T12:17:18.845Z,8.23
2024-01-09T12:22:24.031Z,11.05
2024-01-09T12:27:26.172Z,9.43
2024-01-09T12:32:27.937Z,6.60
2024-01-09T12:37:29.622Z,9.18
2024-01-09T12:42:31.232Z,8.00
2024-01-09T12:47:32.994Z,7.95
2024-01-09T12:52:36.503Z,9.57
2024-01-09T12:57:38.036Z,7.78
2024-01-09T13:02:40.439Z,7.30
2024-01-09T13:07:42.042Z,8.18
2024-01-09T13:12:43.525Z,9.52
2024-01-09T13:17:45.124Z,8.02
2024-01-09T13:27:51.225Z,13.50
2024-01-09T13:32:52.913Z,7.68
2024-01-09T13:37:56.748Z,10.25
2024-01-09T13:42:58.434Z,10.48
2024-01-09T13:48:03.665Z,8.32
2024-01-09T13:53:05.449Z,11.32
2024-01-09T13:58:06.977Z,10.40
2024-01-09T14:03:09.749Z,6.68
2024-01-09T14:08:11.671Z,8.38
2024-01-09T14:13:13.322Z,8.02
2024-01-09T14:18:15.090Z,7.35
2024-01-09T14:28:42.293Z,9.18
2024-01-09T14:33:44.109Z,8.60
2024-01-09T14:38:46.018Z,9.38
2024-01-09T14:43:48.080Z,9.05
2024-01-09T14:48:49.723Z,7.80
2024-01-09T14:53:51.330Z,9.10
2024-01-09T14:58:52.837Z,9.05
2024-01-09T15:03:54.377Z,9.77
2024-01-09T15:08:55.838Z,8.18
2024-01-09T15:13:59.466Z,7.20
2024-01-09T15:19:01.092Z,8.50
2024-01-09T15:24:02.605Z,8.20
2024-01-09T15:29:04.280Z,9.02
2024-01-09T15:34:06.255Z,8.77
2024-01-09T15:39:08.092Z,9.70
2024-01-09T15:44:10.552Z,9.18
2024-01-09T15:49:27.225Z,8.38
2024-01-09T15:54:32.399Z,7.97
2024-01-09T15:59:34.337Z,10.35
2024-01-09T16:04:38.934Z,7.82
2024-01-09T16:09:40.654Z,7.75
2024-01-09T16:14:42.274Z,9.40
2024-01-09T16:19:44.889Z,8.60
2024-01-09T16:24:46.505Z,7.20
2024-01-09T16:29:47.998Z,10.10
2024-01-09T16:34:49.526Z,9.85
2024-01-09T16:39:51.050Z,8.40
2024-01-09T16:44:52.672Z,11.95
2024-01-09T16:49:54.311Z,8.18
2024-01-09T16:54:56.304Z,8.60
2024-01-09T16:59:57.890Z,8.00
2024-01-09T17:04:59.500Z,7.28
2024-01-09T17:10:00.976Z,6.95
2024-01-09T17:15:02.454Z,7.60
2024-01-09T17:20:05.128Z,7.38
2024-01-09T17:25:11.713Z,7.28
2024-01-09T17:35:39.184Z,9.25
2024-01-09T17:40:41.364Z,8.05
2024-01-09T17:45:43.498Z,8.23
2024-01-09T17:50:45.111Z,8.35
2024-01-09T17:55:47.777Z,9.60
2024-01-09T18:00:49.599Z,7.50
2024-01-09T18:05:51.479Z,8.25
2024-01-09T18:10:53.631Z,9.77
2024-01-09T18:15:56.533Z,11.27
2024-01-09T18:20:58.057Z,8.80
2024-01-09T18:25:59.634Z,9.82
2024-01-09T18:31:02.191Z,10.48
2024-01-09T18:36:03.871Z,9.32
2024-01-09T18:41:08.308Z,9.90
2024-01-09T18:46:11.160Z,10.00
2024-01-09T18:51:12.688Z,8.18
2024-01-09T18:56:14.604Z,8.55
2024-01-09T19:01:16.286Z,8.93
2024-01-09T19:06:18.210Z,8.23
2024-01-09T19:11:28.535Z,9.05
2024-01-09T19:16:30.015Z,7.90
2024-01-09T19:21:31.451Z,8.32
2024-01-09T19:26:33.969Z,10.07
2024-01-09T19:31:42.148Z,9.82
2024-01-09T19:36:49.945Z,8.50
2024-01-09T19:41:51.661Z,9.82
2024-01-09T19:46:53.225Z,9.40
2024-01-09T19:51:54.851Z,9.15
2024-01-09T19:56:56.494Z,7.88
2024-01-09T20:01:57.991Z,9.00
2024-01-09T20:06:59.783Z,8.63
2024-01-09T20:12:03.727Z,9.15
2024-01-09T20:17:05.488Z,9.15
2024-01-09T20:22:06.999Z,10.85
2024-01-09T20:27:08.555Z,9.82
2024-01-09T20:32:10.162Z,9.40
2024-01-09T20:37:12.646Z,9.63
2024-01-09T20:42:14.199Z,9.40
2024-01-09T20:47:15.747Z,10.38
2024-01-09T20:52:36.940Z,11.00
2024-01-09T20:57:38.490Z,10.30
2024-01-09T21:02:40.522Z,12.35
2024-01-09T21:07:42.085Z,13.63
2024-01-09T21:12:43.662Z,10.88
2024-01-09T21:17:45.668Z,10.45
2024-01-09T21:22:48.807Z,11.05
2024-01-09T21:27:50.568Z,12.63
2024-01-09T21:32:52.085Z,11.23
2024-01-09T21:37:53.979Z,14.00
2024-01-09T21:42:55.475Z,12.90
2024-01-09T21:47:57.098Z,12.13
2024-01-09T21:53:01.524Z,16.80
2024-01-09T21:58:05.009Z,15.15
2024-01-09T22:03:06.660Z,14.55
2024-01-09T22:08:08.713Z,14.65
2024-01-09T22:13:10.308Z,14.40
2024-01-09T22:18:11.929Z,13.45
2024-01-09T22:23:13.507Z,12.82
2024-01-09T22:28:43.755Z,14.18
2024-01-09T22:33:45.807Z,13.50
2024-01-09T22:38:47.510Z,15.68
2024-01-09T22:43:49.708Z,15.75
2024-01-09T22:48:51.273Z,14.05
2024-01-09T22:53:52.831Z,15.93
2024-01-09T22:58:54.344Z,18.05
2024-01-09T23:03:55.846Z,15.50
2024-01-09T23:08:57.374Z,17.33
2024-01-09T23:13:58.843Z,15.80
2024-01-09T23:19:00.470Z,14.13
2024-01-09T23:24:02.283Z,16.63
2024-01-09T23:29:03.832Z,17.15
2024-01-09T23:34:05.489Z,15.88
2024-01-09T23:39:07.075Z,15.02
2024-01-09T23:44:08.846Z,16.58
2024-01-09T23:49:10.590Z,14.80
2024-01-09T23:59:27.427Z,14.68
